Time;durP1;ratioP1;P1;durP2;ratioP2;P2;SDS_P1;SDS_P2;PMS_P1;PMS_P2;Temp;Humidity;BMP_temperature;BMP_pressure;BME280_temperature;BME280_humidity;BME280_pressure;Samples;Min_cycle;Max_cycle;Signal;HPM_P1;HPM_P2
2021/12/10 00:01:49;;;;;;;8.90;5.72;;;;;;;;;;4999148;28;20042;-56
2021/12/10 00:04:20;;;;;;;5.45;4.78;;;;;;;;;;4994106;28;20109;-57
2021/12/10 00:06:51;;;;;;;6.15;4.47;;;;;;;;;;5001314;28;20050;-56
2021/12/10 00:09:28;;;;;;;5.35;3.80;;;;;;;;;;5000737;28;20053;-57
2021/12/10 00:12:00;;;;;;;4.75;4.35;;;;;;;;;;5000854;28;20047;-57
2021/12/10 00:14:30;;;;;;;4.97;3.83;;;;;;;;;;4995694;28;20049;-58
2021/12/10 00:16:59;;;;;;;4.53;4.13;;;;;;;;;;4985483;28;20109;-56
2021/12/10 00:21:55;;;;;;;4.38;4.07;;;;;;;;;;4992598;28;20093;-57
2021/12/10 00:24:25;;;;;;;4.95;4.40;;;;;;;;;;4992135;28;20046;-58
2021/12/10 00:26:53;;;;;;;6.10;5.50;;;;;;;;;;4991587;28;20050;-58
2021/12/10 00:29:20;;;;;;;5.45;4.95;;;;;;;;;;4991401;28;20714;-57
2021/12/10 00:32:03;;;;;;;5.07;4.57;;;;;;;;;;4990803;28;20046;-58
2021/12/10 00:34:37;;;;;;;5.57;5.07;;;;;;;;;;4991302;28;20046;-58
2021/12/10 00:37:06;;;;;;;;;;;;;;;;;;4991918;28;20409;-58
2021/12/10 00:39:37;;;;;;;6.30;5.70;;;;;;;;;;4985640;28;19922;-58
2021/12/10 00:42:07;;;;;;;6.15;5.65;;;;;;;;;;4992794;28;20112;-58
2021/12/10 00:44:34;;;;;;;7.95;7.15;;;;;;;;;;4992978;28;20446;-58
2021/12/10 00:47:01;;;;;;;7.72;7.03;;;;;;;;;;4992380;28;20050;-58
2021/12/10 00:49:28;;;;;;;8.25;7.45;;;;;;;;;;4993113;28;20051;-58
2021/12/10 00:51:55;;;;;;;7.45;6.82;;;;;;;;;;4992798;28;20038;-58
2021/12/10 00:54:22;;;;;;;9.02;8.25;;;;;;;;;;4992887;28;20053;-57
2021/12/10 00:56:49;;;;;;;13.68;9.88;;;;;;;;;;4993085;28;20054;-57
2021/12/10 00:59:19;;;;;;;9.65;8.75;;;;;;;;;;4992981;28;20042;-57
2021/12/10 01:01:48;;;;;;;12.82;11.52;;;;;;;;;;4992980;28;20046;-57
2021/12/10 01:04:29;;;;;;;9.60;8.63;;;;;;;;;;4992566;28;20045;-57
2021/12/10 01:06:58;;;;;;;10.70;9.70;;;;;;;;;;4993206;28;20042;-58
2021/12/10 01:09:29;;;;;;;12.02;8.73;;;;;;;;;;4993218;28;20101;-57
2021/12/10 01:12:10;;;;;;;10.95;9.93;;;;;;;;;;4992848;28;20046;-57
2021/12/10 01:15:09;;;;;;;13.68;12.20;;;;;;;;;;4992706;28;20046;-57
2021/12/10 01:26:12;;;;;;;12.65;11.45;;;;;;;;;;4992652;28;20519;-57
2021/12/10 01:28:41;;;;;;;12.98;11.70;;;;;;;;;;4994605;28;20057;-57
2021/12/10 01:31:09;;;;;;;17.65;13.93;;;;;;;;;;4996693;28;20445;-58
2021/12/10 01:33:37;;;;;;;12.57;11.32;;;;;;;;;;4996377;28;20501;-58
2021/12/10 01:36:07;;;;;;;13.02;11.73;;;;;;;;;;4996501;28;20057;-58
2021/12/10 01:38:40;;;;;;;12.90;11.60;;;;;;;;;;4996357;28;20552;-57
2021/12/10 01:41:11;;;;;;;20.27;16.50;;;;;;;;;;4996413;28;20112;-57
2021/12/10 01:43:40;;;;;;;18.15;15.05;;;;;;;;;;4995947;28;20034;-58
2021/12/10 01:46:13;;;;;;;22.52;16.10;;;;;;;;;;4994473;28;20046;-58
2021/12/10 01:48:44;;;;;;;24.58;18.17;;;;;;;;;;4996520;28;20050;-57
2021/12/10 01:51:14;;;;;;;15.15;12.70;;;;;;;;;;4996158;28;20050;-58
2021/12/10 01:53:42;;;;;;;13.02;11.50;;;;;;;;;;4996365;28;20049;-57
2021/12/10 01:56:14;;;;;;;11.60;10.50;;;;;;;;;;4996481;28;20374;-58
2021/12/10 01:58:42;;;;;;;12.05;10.85;;;;;;;;;;4996278;28;20054;-58
2021/12/10 02:01:14;;;;;;;12.40;11.10;;;;;;;;;;4996201;28;20497;-57
2021/12/10 02:03:42;;;;;;;11.07;9.93;;;;;;;;;;4996189;28;20401;-58
2021/12/10 02:06:09;;;;;;;13.73;12.45;;;;;;;;;;4996157;28;20101;-58
2021/12/10 02:08:37;;;;;;;13.43;11.43;;;;;;;;;;4995415;28;20544;-61
2021/12/10 02:11:05;;;;;;;13.95;12.50;;;;;;;;;;4994908;28;20057;-58
2021/12/10 02:13:33;;;;;;;13.50;12.07;;;;;;;;;;4995850;28;20046;-58
2021/12/10 02:16:00;;;;;;;14.43;11.85;;;;;;;;;;4996080;28;20038;-58
2021/12/10 02:18:27;;;;;;;16.25;14.65;;;;;;;;;;4996051;28;20049;-58
2021/12/10 02:20:53;;;;;;;18.27;16.48;;;;;;;;;;4995559;28;20043;-57
2021/12/10 02:23:22;;;;;;;21.17;18.73;;;;;;;;;;4995866;28;20046;-57
2021/12/10 02:25:50;;;;;;;21.23;18.90;;;;;;;;;;4995737;28;20042;-57
2021/12/10 02:28:17;;;;;;;22.73;19.55;;;;;;;;;;4995812;28;20042;-58
2021/12/10 02:30:45;;;;;;;22.17;19.90;;;;;;;;;;4995254;28;20070;-57
2021/12/10 02:33:13;;;;;;;18.08;16.15;;;;;;;;;;4995742;28;20050;-58
2021/12/10 02:35:40;;;;;;;17.52;15.63;;;;;;;;;;4995265;28;20051;-57
2021/12/10 02:38:07;;;;;;;16.10;14.38;;;;;;;;;;4995630;28;20058;-57
2021/12/10 02:40:36;;;;;;;16.10;14.27;;;;;;;;;;4995219;28;20109;-58
2021/12/10 02:43:07;;;;;;;17.58;15.88;;;;;;;;;;4995476;28;20050;-58
2021/12/10 02:45:34;;;;;;;16.55;14.95;;;;;;;;;;4995438;28;20042;-58
2021/12/10 02:48:01;;;;;;;14.25;12.85;;;;;;;;;;4995183;28;20077;-58
2021/12/10 02:50:29;;;;;;;16.80;15.10;;;;;;;;;;4995460;28;20069;-58
2021/12/10 02:52:57;;;;;;;18.90;13.73;;;;;;;;;;4995185;28;20042;-58
2021/12/10 02:55:24;;;;;;;15.02;13.52;;;;;;;;;;4995280;28;20509;-59
2021/12/10 02:57:55;;;;;;;13.57;12.25;;;;;;;;;;4994718;28;20042;-59
2021/12/10 03:00:27;;;;;;;21.85;19.55;;;;;;;;;;4995239;28;20043;-58
2021/12/10 03:02:55;;;;;;;23.70;20.00;;;;;;;;;;4995055;28;20047;-58
2021/12/10 03:05:22;;;;;;;24.50;20.90;;;;;;;;;;4995382;28;20042;-58
2021/12/10 03:07:51;;;;;;;25.73;21.63;;;;;;;;;;4994956;28;20054;-58
2021/12/10 03:10:24;;;;;;;26.40;23.55;;;;;;;;;;4994924;28;20061;-58
2021/12/10 03:12:51;;;;;;;30.15;23.98;;;;;;;;;;4995442;28;20046;-58
2021/12/10 03:15:21;;;;;;;25.05;22.35;;;;;;;;;;4991813;28;20042;-58
2021/12/10 03:17:48;;;;;;;25.48;22.75;;;;;;;;;;4986294;28;20432;-58
2021/12/10 03:20:18;;;;;;;28.88;23.00;;;;;;;;;;4990643;28;20049;-58
2021/12/10 03:22:46;;;;;;;23.83;21.15;;;;;;;;;;4994491;28;20111;-58
2021/12/10 03:25:15;;;;;;;23.45;20.52;;;;;;;;;;4994172;28;20424;-58
2021/12/10 03:27:42;;;;;;;28.27;20.73;;;;;;;;;;4994349;28;20090;-58
2021/12/10 03:30:15;;;;;;;25.60;20.58;;;;;;;;;;4994315;28;20045;-58
2021/12/10 03:32:42;;;;;;;23.48;20.17;;;;;;;;;;4994507;28;20046;-58
2021/12/10 03:35:17;;;;;;;20.23;18.13;;;;;;;;;;4993872;28;20509;-58
2021/12/10 03:37:45;;;;;;;26.38;17.83;;;;;;;;;;4994158;28;20057;-57
2021/12/10 03:40:15;;;;;;;19.02;17.15;;;;;;;;;;4993848;28;20046;-57
2021/12/10 03:42:42;;;;;;;18.50;15.68;;;;;;;;;;4993939;28;20050;-57
2021/12/10 03:45:10;;;;;;;17.65;15.70;;;;;;;;;;4994215;28;20062;-57
2021/12/10 03:47:38;;;;;;;19.13;16.80;;;;;;;;;;4993806;28;20050;-58
2021/12/10 03:50:07;;;;;;;18.13;15.95;;;;;;;;;;4994285;28;20448;-58
2021/12/10 03:52:35;;;;;;;22.45;17.08;;;;;;;;;;4993182;28;20379;-58
2021/12/10 03:55:03;;;;;;;20.35;16.63;;;;;;;;;;4994047;28;20100;-58
2021/12/10 03:57:30;;;;;;;22.10;17.00;;;;;;;;;;4993912;28;20050;-57
2021/12/10 03:59:57;;;;;;;20.05;17.20;;;;;;;;;;4994104;28;20042;-57
2021/12/10 04:02:26;;;;;;;17.90;16.02;;;;;;;;;;4993427;28;20097;-58
2021/12/10 04:04:53;;;;;;;17.58;15.27;;;;;;;;;;4993932;28;20049;-58
2021/12/10 04:07:23;;;;;;;18.83;16.77;;;;;;;;;;4993552;28;20096;-57
2021/12/10 04:09:51;;;;;;;16.25;14.63;;;;;;;;;;4993918;28;20056;-57
2021/12/10 04:12:18;;;;;;;14.68;13.27;;;;;;;;;;4994016;28;20050;-57
2021/12/10 04:14:48;;;;;;;16.70;14.60;;;;;;;;;;4993480;28;20046;-57
2021/12/10 04:17:19;;;;;;;16.35;14.60;;;;;;;;;;4993549;28;20054;-57
2021/12/10 04:19:48;;;;;;;18.92;13.13;;;;;;;;;;4993353;28;20057;-58
2021/12/10 04:22:15;;;;;;;15.73;13.98;;;;;;;;;;4993796;28;20097;-57
2021/12/10 04:24:42;;;;;;;14.63;13.10;;;;;;;;;;4993342;28;20113;-58
2021/12/10 04:27:11;;;;;;;13.02;11.73;;;;;;;;;;4993745;28;20065;-57
2021/12/10 04:29:38;;;;;;;11.90;9.75;;;;;;;;;;4993032;28;20555;-57
2021/12/10 04:32:07;;;;;;;10.77;9.60;;;;;;;;;;4993780;28;20042;-57
2021/12/10 04:34:37;;;;;;;9.05;8.07;;;;;;;;;;4993513;28;20043;-58
2021/12/10 04:37:07;;;;;;;10.02;8.60;;;;;;;;;;4993175;28;20141;-57
2021/12/10 04:39:37;;;;;;;12.38;9.80;;;;;;;;;;4993636;28;20034;-57
2021/12/10 04:42:05;;;;;;;9.57;7.25;;;;;;;;;;4986154;28;20079;-57
2021/12/10 04:44:32;;;;;;;9.60;7.72;;;;;;;;;;4989328;28;20513;-57
2021/12/10 04:46:59;;;;;;;8.13;6.75;;;;;;;;;;4992857;28;20054;-57
2021/12/10 04:49:26;;;;;;;6.60;6.00;;;;;;;;;;4993239;28;20050;-57
2021/12/10 04:51:54;;;;;;;6.18;5.57;;;;;;;;;;4993068;28;20060;-57
2021/12/10 04:54:24;;;;;;;6.05;5.47;;;;;;;;;;4993314;28;20097;-57
2021/12/10 04:56:54;;;;;;;6.40;5.10;;;;;;;;;;4992490;28;20042;-57
2021/12/10 04:59:22;;;;;;;5.93;5.20;;;;;;;;;;4993076;28;20052;-57
2021/12/10 05:01:53;;;;;;;6.43;5.78;;;;;;;;;;4992645;28;20516;-57
2021/12/10 05:04:21;;;;;;;4.88;4.38;;;;;;;;;;4997199;28;20043;-57
2021/12/10 05:06:48;;;;;;;4.93;4.38;;;;;;;;;;4996951;28;20440;-57
2021/12/10 05:09:15;;;;;;;5.40;4.90;;;;;;;;;;4979834;28;20073;-57
2021/12/10 05:11:43;;;;;;;5.32;4.50;;;;;;;;;;4996703;28;20046;-57
2021/12/10 05:14:11;;;;;;;5.78;5.28;;;;;;;;;;4996768;28;20053;-57
2021/12/10 05:16:42;;;;;;;6.05;5.50;;;;;;;;;;4996966;28;20493;-57
2021/12/10 05:19:10;;;;;;;7.13;6.43;;;;;;;;;;4996570;28;20054;-57
2021/12/10 05:21:39;;;;;;;7.43;6.68;;;;;;;;;;4990452;28;20050;-58
2021/12/10 05:24:07;;;;;;;11.82;10.60;;;;;;;;;;4990331;28;20505;-57
2021/12/10 05:26:35;;;;;;;13.75;11.80;;;;;;;;;;4996752;28;20630;-58
2021/12/10 05:29:04;;;;;;;12.73;11.13;;;;;;;;;;4996317;28;20073;-58
2021/12/10 05:31:32;;;;;;;12.00;10.85;;;;;;;;;;4996787;28;20046;-58
2021/12/10 05:33:58;;;;;;;16.20;10.57;;;;;;;;;;4996259;28;20052;-57
2021/12/10 05:36:27;;;;;;;10.38;8.65;;;;;;;;;;4996705;28;20126;-57
2021/12/10 05:38:54;;;;;;;10.80;9.48;;;;;;;;;;4996499;28;20046;-58
2021/12/10 05:41:22;;;;;;;8.48;7.68;;;;;;;;;;4996163;28;20505;-57
2021/12/10 05:43:49;;;;;;;9.50;8.00;;;;;;;;;;4996528;28;20053;-58
2021/12/10 05:46:17;;;;;;;8.02;6.78;;;;;;;;;;4996402;28;20047;-57
2021/12/10 05:48:44;;;;;;;7.07;6.38;;;;;;;;;;4996653;28;20042;-57
2021/12/10 05:51:12;;;;;;;6.82;6.05;;;;;;;;;;4995836;28;20497;-57
2021/12/10 05:53:39;;;;;;;12.95;8.98;;;;;;;;;;4996227;28;20101;-57
2021/12/10 05:56:06;;;;;;;6.50;5.90;;;;;;;;;;4996083;28;20042;-57
2021/12/10 05:58:34;;;;;;;5.82;5.20;;;;;;;;;;4995966;28;20042;-57
2021/12/10 06:01:09;;;;;;;6.97;6.28;;;;;;;;;;4995600;28;20042;-58
2021/12/10 06:03:38;;;;;;;5.18;4.70;;;;;;;;;;4996463;28;20042;-57
2021/12/10 06:06:07;;;;;;;8.00;5.88;;;;;;;;;;4979097;28;20058;-57
2021/12/10 06:08:35;;;;;;;6.18;5.57;;;;;;;;;;4995929;28;20046;-56
2021/12/10 06:11:03;;;;;;;6.00;5.50;;;;;;;;;;4995744;28;20072;-57
2021/12/10 06:13:30;;;;;;;8.88;8.07;;;;;;;;;;4995588;28;20456;-57
2021/12/10 06:15:57;;;;;;;13.20;11.10;;;;;;;;;;4995327;28;20125;-55
2021/12/10 06:18:24;;;;;;;12.88;9.15;;;;;;;;;;4995649;28;20046;-56
2021/12/10 06:20:53;;;;;;;9.52;7.95;;;;;;;;;;4995799;28;20046;-55
2021/12/10 06:23:21;;;;;;;7.97;7.13;;;;;;;;;;4995556;28;20043;-54
2021/12/10 06:25:48;;;;;;;10.18;8.90;;;;;;;;;;4995710;28;20042;-55
2021/12/10 06:28:15;;;;;;;12.57;10.80;;;;;;;;;;4995391;28;20039;-58
2021/12/10 06:30:45;;;;;;;17.23;15.35;;;;;;;;;;4995672;28;20050;-54
2021/12/10 06:33:15;;;;;;;19.75;14.32;;;;;;;;;;4995577;28;20050;-56
2021/12/10 06:35:44;;;;;;;16.20;12.07;;;;;;;;;;4989371;28;20402;-57
2021/12/10 06:38:12;;;;;;;12.63;11.32;;;;;;;;;;4992122;28;20104;-55
2021/12/10 06:40:40;;;;;;;15.05;12.98;;;;;;;;;;4992214;28;20046;-56
2021/12/10 06:43:08;;;;;;;9.20;8.30;;;;;;;;;;4989979;28;20540;-56
2021/12/10 06:45:41;;;;;;;11.18;7.57;;;;;;;;;;4988620;28;20050;-57
2021/12/10 06:48:09;;;;;;;15.45;11.82;;;;;;;;;;4988203;28;20039;-56
2021/12/10 06:50:40;;;;;;;8.55;7.68;;;;;;;;;;4988410;28;20096;-56
2021/12/10 06:53:07;;;;;;;10.38;9.27;;;;;;;;;;4986110;28;20046;-56
2021/12/10 06:55:35;;;;;;;12.25;11.05;;;;;;;;;;4989231;28;20047;-57
2021/12/10 06:58:04;;;;;;;10.77;9.77;;;;;;;;;;4985379;28;20443;-56
2021/12/10 07:00:33;;;;;;;13.52;11.00;;;;;;;;;;4989712;28;20046;-55
2021/12/10 07:03:00;;;;;;;12.68;10.35;;;;;;;;;;4991088;28;20038;-55
2021/12/10 07:05:27;;;;;;;14.13;12.55;;;;;;;;;;4990071;28;20054;-54
2021/12/10 07:07:54;;;;;;;12.05;10.85;;;;;;;;;;4989137;28;20057;-56
2021/12/10 07:10:21;;;;;;;10.15;8.95;;;;;;;;;;4988353;28;20050;-56
2021/12/10 07:12:48;;;;;;;14.00;12.02;;;;;;;;;;4991238;28;20045;-57
2021/12/10 07:15:16;;;;;;;14.25;12.60;;;;;;;;;;4988621;28;20397;-57
2021/12/10 07:17:48;;;;;;;21.80;13.98;;;;;;;;;;4984238;28;20068;-57
2021/12/10 07:20:20;;;;;;;16.90;12.63;;;;;;;;;;4989557;28;20056;-57
2021/12/10 07:22:47;;;;;;;14.52;13.00;;;;;;;;;;4984883;28;20046;-58
2021/12/10 07:25:15;;;;;;;13.85;12.45;;;;;;;;;;4991947;28;20046;-57
2021/12/10 07:27:41;;;;;;;13.90;12.55;;;;;;;;;;4991637;28;20054;-56
2021/12/10 07:30:09;;;;;;;30.85;17.20;;;;;;;;;;4992129;28;20043;-56
2021/12/10 07:32:36;;;;;;;21.85;19.50;;;;;;;;;;4992251;28;20050;-56
2021/12/10 07:35:05;;;;;;;19.02;16.83;;;;;;;;;;4992872;28;20043;-57
2021/12/10 07:37:32;;;;;;;15.77;14.10;;;;;;;;;;4993176;28;20039;-56
2021/12/10 07:39:59;;;;;;;23.08;20.65;;;;;;;;;;4993292;28;20410;-57
2021/12/10 07:42:26;;;;;;;31.55;25.15;;;;;;;;;;4994279;28;20049;-57
2021/12/10 07:44:56;;;;;;;29.13;25.20;;;;;;;;;;4994399;28;20038;-57
2021/12/10 07:47:23;;;;;;;36.17;25.98;;;;;;;;;;4994442;28;20493;-57
2021/12/10 07:49:50;;;;;;;28.48;23.13;;;;;;;;;;4994174;28;20049;-57
2021/12/10 07:52:27;;;;;;;26.85;21.80;;;;;;;;;;4994713;28;20120;-58
2021/12/10 07:54:55;;;;;;;22.55;19.85;;;;;;;;;;4994245;28;20047;-57
2021/12/10 07:57:24;;;;;;;22.05;18.88;;;;;;;;;;4994315;28;20038;-57
2021/12/10 07:59:51;;;;;;;22.70;17.73;;;;;;;;;;4994850;28;20050;-57
2021/12/10 08:02:19;;;;;;;23.20;18.77;;;;;;;;;;4993650;28;20567;-58
2021/12/10 08:04:46;;;;;;;28.65;19.05;;;;;;;;;;4994348;28;20057;-59
2021/12/10 08:07:13;;;;;;;23.63;19.10;;;;;;;;;;4993907;28;20042;-57
2021/12/10 08:09:42;;;;;;;24.70;18.15;;;;;;;;;;4994173;28;20151;-56
2021/12/10 08:12:10;;;;;;;23.10;20.00;;;;;;;;;;4993376;28;20053;-57
2021/12/10 08:14:37;;;;;;;23.80;20.40;;;;;;;;;;4994208;28;20050;-56
2021/12/10 08:17:04;;;;;;;26.05;21.58;;;;;;;;;;4993667;28;20418;-56
2021/12/10 08:19:31;;;;;;;25.83;21.13;;;;;;;;;;4975340;28;20402;-55
2021/12/10 08:21:58;;;;;;;25.52;22.52;;;;;;;;;;4993966;28;20042;-57
2021/12/10 08:24:25;;;;;;;25.08;21.40;;;;;;;;;;4993165;28;20050;-56
2021/12/10 08:26:52;;;;;;;27.08;22.35;;;;;;;;;;4993693;28;20039;-55
2021/12/10 08:29:20;;;;;;;25.58;21.63;;;;;;;;;;4993285;28;20054;-56
2021/12/10 08:31:47;;;;;;;28.35;23.10;;;;;;;;;;4993637;28;20552;-57
2021/12/10 08:34:15;;;;;;;26.85;23.02;;;;;;;;;;4993513;28;20125;-57
2021/12/10 08:36:42;;;;;;;28.67;24.15;;;;;;;;;;4993359;28;20563;-57
2021/12/10 08:39:10;;;;;;;29.38;22.00;;;;;;;;;;4993029;28;20046;-57
2021/12/10 08:41:38;;;;;;;20.15;18.15;;;;;;;;;;4993515;28;20386;-58
2021/12/10 08:44:06;;;;;;;17.15;15.07;;;;;;;;;;4993127;28;20038;-56
2021/12/10 08:46:35;;;;;;;22.80;17.27;;;;;;;;;;4993287;28;20054;-57
2021/12/10 08:49:02;;;;;;;25.70;18.90;;;;;;;;;;4993341;28;20042;-57
2021/12/10 08:51:33;;;;;;;23.90;19.02;;;;;;;;;;4993315;28;20160;-58
2021/12/10 08:54:01;;;;;;;23.98;20.52;;;;;;;;;;4993310;28;20511;-58
2021/12/10 08:56:29;;;;;;;33.25;22.15;;;;;;;;;;4992863;28;20449;-57
2021/12/10 08:58:57;;;;;;;25.60;21.95;;;;;;;;;;4993123;28;20046;-56
2021/12/10 09:01:33;;;;;;;29.48;24.17;;;;;;;;;;4992726;28;20039;-58
2021/12/10 09:04:06;;;;;;;26.67;22.90;;;;;;;;;;4993106;28;20511;-57
2021/12/10 09:06:38;;;;;;;40.92;27.92;;;;;;;;;;4992666;28;20152;-57
2021/12/10 09:09:07;;;;;;;36.20;27.83;;;;;;;;;;4993519;28;20050;-57
2021/12/10 09:11:34;;;;;;;34.88;26.45;;;;;;;;;;4992456;28;20093;-57
2021/12/10 09:14:19;;;;;;;28.25;24.42;;;;;;;;;;4993099;28;20074;-57
2021/12/10 09:16:46;;;;;;;33.03;25.30;;;;;;;;;;4991890;28;20046;-57
2021/12/10 09:19:14;;;;;;;32.97;26.52;;;;;;;;;;4992158;28;20058;-57
2021/12/10 09:21:42;;;;;;;31.67;27.48;;;;;;;;;;4993016;28;20038;-57
2021/12/10 09:24:12;;;;;;;30.23;24.75;;;;;;;;;;4992945;28;20050;-57
2021/12/10 09:26:42;;;;;;;26.70;23.40;;;;;;;;;;4993026;28;20532;-57
2021/12/10 09:29:11;;;;;;;23.40;20.50;;;;;;;;;;4992646;28;20046;-57
2021/12/10 09:31:42;;;;;;;20.00;17.90;;;;;;;;;;4993260;28;20046;-57
2021/12/10 09:34:11;;;;;;;20.20;18.20;;;;;;;;;;4992577;28;20121;-57
2021/12/10 09:36:39;;;;;;;26.73;19.25;;;;;;;;;;4993236;28;20042;-57
2021/12/10 09:39:07;;;;;;;19.10;17.10;;;;;;;;;;4992358;28;20489;-58
2021/12/10 09:41:35;;;;;;;22.58;17.58;;;;;;;;;;4992698;28;20038;-58
2021/12/10 09:44:03;;;;;;;21.75;18.02;;;;;;;;;;4992889;28;20101;-57
2021/12/10 09:46:31;;;;;;;17.90;15.32;;;;;;;;;;4992867;28;20125;-57
2021/12/10 09:48:58;;;;;;;32.38;18.00;;;;;;;;;;4992889;28;20048;-57
2021/12/10 09:51:28;;;;;;;22.08;19.77;;;;;;;;;;4996024;28;20105;-57
2021/12/10 09:53:58;;;;;;;36.83;24.08;;;;;;;;;;4996420;28;20493;-58
2021/12/10 09:56:27;;;;;;;31.17;26.17;;;;;;;;;;4996282;28;20101;-58
2021/12/10 09:58:56;;;;;;;31.75;27.08;;;;;;;;;;4996146;28;20556;-58
2021/12/10 10:01:30;;;;;;;33.05;25.27;;;;;;;;;;4996014;28;20425;-58
2021/12/10 10:04:04;;;;;;;35.30;26.65;;;;;;;;;;4996235;28;20494;-57
2021/12/10 10:06:38;;;;;;;35.83;26.88;;;;;;;;;;4995817;28;20046;-57
2021/12/10 10:09:08;;;;;;;29.45;25.05;;;;;;;;;;4996287;28;20050;-58
2021/12/10 10:11:49;;;;;;;30.75;27.42;;;;;;;;;;4995520;28;20050;-58
2021/12/10 10:14:17;;;;;;;31.60;24.38;;;;;;;;;;4995932;28;20046;-58
2021/12/10 10:16:44;;;;;;;30.60;23.63;;;;;;;;;;4995672;28;20054;-58
2021/12/10 10:19:16;;;;;;;28.80;24.25;;;;;;;;;;4995760;28;20053;-58
2021/12/10 10:21:50;;;;;;;27.90;21.67;;;;;;;;;;4995851;28;20497;-58
2021/12/10 10:24:18;;;;;;;39.03;26.60;;;;;;;;;;4978614;28;20073;-57
2021/12/10 10:26:53;;;;;;;34.13;29.83;;;;;;;;;;4995555;28;20129;-58
2021/12/10 10:29:21;;;;;;;42.42;30.95;;;;;;;;;;4995160;28;20061;-57
2021/12/10 10:32:08;;;;;;;39.33;30.80;;;;;;;;;;4995814;28;20049;-58
2021/12/10 10:34:41;;;;;;;43.13;33.92;;;;;;;;;;4995223;28;20501;-57
2021/12/10 10:37:09;;;;;;;49.33;34.70;;;;;;;;;;4995655;28;20053;-58
2021/12/10 10:39:38;;;;;;;46.13;36.03;;;;;;;;;;4995468;28;20108;-58
2021/12/10 10:42:11;;;;;;;50.67;37.03;;;;;;;;;;4995646;28;20050;-58
2021/12/10 10:44:57;;;;;;;51.20;38.05;;;;;;;;;;4995000;28;20039;-58
2021/12/10 10:47:24;;;;;;;53.55;39.00;;;;;;;;;;4995449;28;20489;-58
2021/12/10 10:50:17;;;;;;;49.00;37.25;;;;;;;;;;4994951;28;20489;-58
2021/12/10 10:52:47;;;;;;;52.42;37.65;;;;;;;;;;4995336;28;20049;-58
2021/12/10 10:55:34;;;;;;;50.17;36.42;;;;;;;;;;4995029;28;20419;-58
2021/12/10 10:58:05;;;;;;;49.85;36.08;;;;;;;;;;4995367;28;20409;-58
2021/12/10 11:00:49;;;;;;;52.55;40.10;;;;;;;;;;4994738;28;20437;-57
2021/12/10 11:03:45;;;;;;;59.75;40.55;;;;;;;;;;4995290;28;20049;-58
2021/12/10 11:06:16;;;;;;;56.85;38.83;;;;;;;;;;4995093;28;20046;-58
2021/12/10 11:08:53;;;;;;;64.38;43.10;;;;;;;;;;4995059;28;20046;-58
2021/12/10 11:11:24;;;;;;;55.67;41.20;;;;;;;;;;4994616;28;20433;-57
2021/12/10 11:14:20;;;;;;;54.25;38.72;;;;;;;;;;4995028;28;20042;-58
2021/12/10 11:16:51;;;;;;;53.75;37.50;;;;;;;;;;4975834;28;20046;-58
2021/12/10 11:19:23;;;;;;;55.65;39.55;;;;;;;;;;4995134;28;20042;-57
2021/12/10 11:21:53;;;;;;;51.25;39.83;;;;;;;;;;4994482;28;20465;-57
2021/12/10 11:24:25;;;;;;;55.75;38.75;;;;;;;;;;4994678;28;20096;-55
2021/12/10 11:27:12;;;;;;;58.30;37.20;;;;;;;;;;4994401;28;20050;-57
2021/12/10 11:29:51;;;;;;;53.00;38.53;;;;;;;;;;4994433;28;20057;-56
2021/12/10 11:32:36;;;;;;;58.10;39.30;;;;;;;;;;4994476;28;20046;-56
2021/12/10 11:35:03;;;;;;;;;;;;;;;;;;4977776;28;20050;-57
2021/12/10 11:37:48;;;;;;;51.97;39.45;;;;;;;;;;4994533;28;19921;-57
2021/12/10 11:40:46;;;;;;;60.50;40.53;;;;;;;;;;4994401;28;20050;-57
2021/12/10 11:48:39;;;;;;;52.90;40.45;;;;;;;;;;4994283;28;20047;-56
2021/12/10 11:51:07;;;;;;;55.47;38.53;;;;;;;;;;4994304;28;20042;-56
2021/12/10 11:53:41;;;;;;;52.92;38.58;;;;;;;;;;4994243;28;20050;-57
2021/12/10 11:56:22;;;;;;;44.58;34.25;;;;;;;;;;4974677;28;20047;-58
2021/12/10 11:59:18;;;;;;;44.65;34.90;;;;;;;;;;4986522;28;20046;-58
2021/12/10 12:02:05;;;;;;;42.10;32.25;;;;;;;;;;4993651;28;20499;-58
2021/12/10 12:04:38;;;;;;;39.75;29.40;;;;;;;;;;4993521;28;20078;-58
2021/12/10 12:07:30;;;;;;;35.90;28.20;;;;;;;;;;4993432;28;20050;-55
2021/12/10 12:10:38;;;;;;;35.20;29.92;;;;;;;;;;4993931;28;20038;-53
2021/12/10 12:15:59;;;;;;;34.35;28.95;;;;;;;;;;4993443;28;20074;-52
2021/12/10 12:18:32;;;;;;;31.45;28.13;;;;;;;;;;4993894;28;20124;-59
2021/12/10 12:27:05;;;;;;;35.83;29.65;;;;;;;;;;4989647;28;20129;-52
2021/12/10 12:29:55;;;;;;;45.33;36.22;;;;;;;;;;4993774;28;20042;-50
2021/12/10 12:32:27;;;;;;;43.42;33.55;;;;;;;;;;4993051;28;20445;-51
2021/12/10 12:34:55;;;;;;;40.78;28.77;;;;;;;;;;4993729;28;20046;-52
2021/12/10 12:37:23;;;;;;;37.45;30.65;;;;;;;;;;4976090;28;20097;-51
2021/12/10 12:40:11;;;;;;;36.63;30.52;;;;;;;;;;4993776;28;20085;-50
2021/12/10 12:42:45;;;;;;;36.28;29.35;;;;;;;;;;4993429;28;20096;-51
2021/12/10 12:45:18;;;;;;;38.33;32.22;;;;;;;;;;4993389;28;20046;-52
2021/12/10 12:48:09;;;;;;;39.13;30.65;;;;;;;;;;4993095;28;20477;-56
2021/12/10 12:50:44;;;;;;;38.97;33.17;;;;;;;;;;4993557;28;20046;-52
2021/12/10 12:53:29;;;;;;;34.85;28.40;;;;;;;;;;4993245;28;20046;-52
2021/12/10 12:56:07;;;;;;;40.53;32.60;;;;;;;;;;4976747;28;20109;-52
2021/12/10 12:59:10;;;;;;;41.53;31.70;;;;;;;;;;4992978;28;20065;-54
2021/12/10 13:01:50;;;;;;;38.08;29.08;;;;;;;;;;4988973;28;20553;-53
2021/12/10 13:04:33;;;;;;;42.85;32.70;;;;;;;;;;4989369;28;20046;-55
2021/12/10 13:07:19;;;;;;;38.05;29.13;;;;;;;;;;4996627;28;20417;-57
2021/12/10 13:09:54;;;;;;;42.67;32.00;;;;;;;;;;4997534;28;20046;-58
2021/12/10 13:12:42;;;;;;;35.40;31.30;;;;;;;;;;4996094;28;20495;-55
2021/12/10 13:15:19;;;;;;;31.75;27.63;;;;;;;;;;4990193;28;20073;-54
2021/12/10 13:17:54;;;;;;;33.35;29.02;;;;;;;;;;4995611;28;20386;-54
2021/12/10 13:20:26;;;;;;;39.95;29.10;;;;;;;;;;4999626;28;20138;-52
2021/12/10 13:22:57;;;;;;;29.80;26.65;;;;;;;;;;4994086;28;20046;-54
2021/12/10 13:25:28;;;;;;;28.90;25.15;;;;;;;;;;4992681;28;20074;-55
2021/12/10 13:27:57;;;;;;;29.85;25.63;;;;;;;;;;4989872;28;20042;-56
2021/12/10 13:30:28;;;;;;;31.23;27.80;;;;;;;;;;5001710;28;20056;-50
2021/12/10 13:32:56;;;;;;;30.50;25.92;;;;;;;;;;4995435;28;20039;-57
2021/12/10 13:35:26;;;;;;;31.70;27.45;;;;;;;;;;4997456;28;20047;-56
2021/12/10 13:37:56;;;;;;;36.80;27.63;;;;;;;;;;4999410;28;20038;-55
2021/12/10 13:40:23;;;;;;;32.28;28.05;;;;;;;;;;5001165;28;20096;-56
2021/12/10 13:42:51;;;;;;;33.35;28.45;;;;;;;;;;5003411;28;20046;-57
2021/12/10 13:45:22;;;;;;;31.08;27.70;;;;;;;;;;4999191;28;20042;-58
2021/12/10 13:48:01;;;;;;;33.92;27.58;;;;;;;;;;4997160;28;20053;-54
2021/12/10 13:50:34;;;;;;;38.60;30.00;;;;;;;;;;4997756;28;20581;-57
2021/12/10 13:53:27;;;;;;;34.53;30.48;;;;;;;;;;4999399;28;20141;-57
2021/12/10 13:56:05;;;;;;;37.15;28.85;;;;;;;;;;4989966;28;20059;-52
2021/12/10 13:58:51;;;;;;;39.60;32.38;;;;;;;;;;4988442;28;20122;-53
2021/12/10 14:01:22;;;;;;;40.08;32.85;;;;;;;;;;4992281;28;20046;-53
2021/12/10 14:04:10;;;;;;;37.08;32.03;;;;;;;;;;4999400;28;20104;-57
2021/12/10 14:07:14;;;;;;;44.33;35.65;;;;;;;;;;4998138;28;20498;-52
2021/12/10 14:09:53;;;;;;;37.15;32.03;;;;;;;;;;4977569;28;20143;-57
2021/12/10 14:12:40;;;;;;;40.67;32.15;;;;;;;;;;4996487;28;20456;-57
2021/12/10 14:15:47;;;;;;;35.65;27.90;;;;;;;;;;4997200;28;20489;-52
2021/12/10 14:18:43;;;;;;;33.20;28.67;;;;;;;;;;4982790;28;20035;-56
2021/12/10 14:21:30;;;;;;;32.70;28.88;;;;;;;;;;4984710;28;20512;-57
2021/12/10 14:24:37;;;;;;;33.40;28.27;;;;;;;;;;4977998;28;20062;-56
2021/12/10 14:27:27;;;;;;;30.90;26.80;;;;;;;;;;4994434;28;20045;-56
2021/12/10 14:30:27;;;;;;;29.42;25.67;;;;;;;;;;4994696;28;20066;-57
2021/12/10 14:33:02;;;;;;;30.90;26.50;;;;;;;;;;4990654;28;20128;-57
2021/12/10 14:36:07;;;;;;;36.90;29.05;;;;;;;;;;4995406;28;20449;-57
2021/12/10 14:39:03;;;;;;;35.95;29.67;;;;;;;;;;4981626;28;20457;-58
2021/12/10 14:41:53;;;;;;;34.38;27.88;;;;;;;;;;4990989;28;20405;-57
2021/12/10 14:44:27;;;;;;;31.23;26.55;;;;;;;;;;4993630;28;20046;-59
2021/12/10 14:47:17;;;;;;;30.63;27.50;;;;;;;;;;4991332;28;20042;-58
2021/12/10 14:50:08;;;;;;;30.40;25.02;;;;;;;;;;4982445;28;20035;-55
2021/12/10 14:52:55;;;;;;;31.23;26.08;;;;;;;;;;4979696;28;20515;-54
2021/12/10 14:55:43;;;;;;;29.95;25.83;;;;;;;;;;4979014;28;20038;-53
2021/12/10 14:58:30;;;;;;;34.13;28.15;;;;;;;;;;4980915;28;20038;-52
2021/12/10 15:01:17;;;;;;;32.80;28.70;;;;;;;;;;4979431;28;20046;-50
2021/12/10 15:04:17;;;;;;;34.63;29.27;;;;;;;;;;4978403;28;20030;-55
2021/12/10 15:07:20;;;;;;;36.50;29.88;;;;;;;;;;4979407;28;20043;-57
2021/12/10 15:10:30;;;;;;;32.70;27.15;;;;;;;;;;4981039;28;20067;-52
2021/12/10 15:13:17;;;;;;;37.30;31.80;;;;;;;;;;4979466;28;20089;-56
2021/12/10 15:16:09;;;;;;;33.17;28.05;;;;;;;;;;4976193;28;20438;-53
2021/12/10 15:18:43;;;;;;;34.00;28.50;;;;;;;;;;4981163;28;20406;-57
2021/12/10 15:21:28;;;;;;;33.83;27.90;;;;;;;;;;4979654;28;20402;-55